Latest Weather Observations for Camooweal

IDD60801

Issued at 5:11 pm CST Thursday 18 July 2024 (issued every 10 minutes, with the page automatically refreshed every 10 minutes)

About weather observations | Map of weather stations | Latest weather observations for NT | Other Formats
Station Details ID: 037010 Name: CAMOOWEAL TOWNSHIP Lat: -19.92 Lon: 138.12 Height: 231.2 m
Data from the previous 72 hours. | See also: Recent months at Camooweal
Date/Time
CST
Temp
°C
App
Temp
°C
Dew
Point
°C
Rel
Hum
%
Delta-T
°C
Wind Press
QNH
hPa
Press
MSL
hPa
Rain since
9am
mm
Dir  Spd
km/h
Gust
km/h
Spd
kts
Gust
kts
18/05:00pm 19.9 14.7 -2.4 22 9.5 SE 15 20 8 11 1020.2 1019.7 0.0
18/04:30pm 20.5 14.9 -2.5 21 9.8 SSE 17 26 9 14 1019.9 1019.4 0.0
18/04:00pm 21.0 15.0 -2.8 20 10.2 SSE 19 26 10 14 1020.1 1019.6 0.0
18/03:30pm 21.2 14.7 -2.6 20 10.2 S 22 33 12 18 1020.4 1019.9 0.0
18/03:00pm 21.2 15.1 -2.0 21 10.1 SSE 20 30 11 16 1020.7 1020.2 0.0
18/02:30pm 21.2 15.3 -2.0 21 10.0 S 19 41 10 22 1020.8 1020.3 0.0
18/02:00pm 20.5 14.9 -2.5 21 9.8 SSE 17 24 9 13 1021.1 1020.6 0.0
18/01:30pm 20.6 14.6 -1.2 23 9.5 SSE 20 32 11 17 1021.5 1021.1 0.0
18/01:00pm 19.7 14.1 -0.3 26 8.9 SSE 19 28 10 15 1022.0 1021.6 0.0
18/12:30pm 19.6 13.4 -0.4 26 8.8 SSE 22 30 12 16 1022.5 1022.1 0.0
18/12:00pm 19.1 12.6 0.2 28 8.4 SSE 24 37 13 20 1023.1 1022.7 0.0
18/11:30am 18.5 12.1 1.1 31 7.8 SSE 24 39 13 21 1023.5 1023.1 0.0
18/11:00am 17.3 10.5 0.9 33 7.3 SSE 26 35 14 19 1023.8 1023.4 0.0
18/10:30am 16.8 9.3 0.9 34 7.0 SSE 30 39 16 21 1024.5 1024.0 0.0
18/10:00am 15.8 8.3 1.2 37 6.5 SSE 30 41 16 22 1024.6 1024.1 0.0
18/09:30am 15.2 8.5 1.7 40 6.0 SSE 26 39 14 21 1024.4 1023.9 0.0
18/09:00am 13.8 7.4 1.1 42 5.5 SSE 24 32 13 17 1024.4 1023.9 0.0
18/08:30am 11.9 6.4 0.7 46 4.7 SSE 19 24 10 13 1024.0 1023.6 0.0
18/08:00am 8.7 4.3 0.4 56 3.4 SSE 13 17 7 9 1023.6 1023.2 0.0
18/07:30am 5.1 1.8 0.1 70 1.9 SE 7 11 4 6 1023.2 1022.8 0.0
18/07:00am 4.2 0.8 -0.8 70 1.9 SE 7 9 4 5 1022.9 1022.5 0.0
18/06:30am 3.7 -0.5 -1.1 71 1.8 SE 11 13 6 7 1022.9 1022.5 0.0
18/06:00am 4.0 0.1 -1.2 69 1.9 ESE 9 11 5 6 1022.7 1022.3 0.0
18/05:30am 4.3 0.1 -1.1 68 2.0 SE 11 13 6 7 1022.7 1022.3 0.0
18/05:00am 5.2 0.6 -0.8 65 2.3 SE 13 15 7 8 1022.2 1021.8 0.0
18/04:30am 6.0 1.4 -0.9 61 2.6 SE 13 15 7 8 1022.1 1021.7 0.0
18/04:00am 5.5 0.9 -1.0 63 2.5 SE 13 17 7 9 1022.1 1021.7 0.0
18/03:30am 5.8 1.2 -0.9 62 2.5 SE 13 15 7 8 1022.1 1021.7 0.0
18/03:00am 6.8 1.8 -1.1 57 3.0 SSE 15 19 8 10 1022.2 1021.8 0.0
18/02:30am 6.9 1.9 -1.0 57 3.0 SSE 15 17 8 9 1022.3 1021.9 0.0
18/02:00am 5.9 1.3 -0.8 62 2.6 SSE 13 15 7 8 1022.6 1022.2 0.0
18/01:30am 4.2 -0.1 -1.4 67 2.1 SSE 11 13 6 7 1023.0 1022.6 0.0
18/01:00am 4.6 1.1 -1.6 64 2.3 SSE 7 9 4 5 1023.2 1022.8 0.0
18/12:30am 6.2 2.0 -1.2 59 2.8 SSE 11 13 6 7 1023.2 1022.8 0.0
18/12:00am 5.0 1.2 -1.0 65 2.3 S 9 15 5 8 1023.2 1022.8 0.0
 
Date/Time
CST
Temp
°C
App
Temp
°C
Dew
Point
°C
Rel
Hum
%
Delta-T
°C
Wind Press
QNH
hPa
Press
MSL
hPa
Rain since
9am
mm
Dir  Spd
km/h
Gust
km/h
Spd
kts
Gust
kts
17/11:30pm 6.3 2.0 -1.3 58 2.9 SSE 11 13 6 7 1023.3 1022.9 0.0
17/11:00pm 6.4 2.9 -1.7 56 3.0 SSE 7 9 4 5 1023.5 1023.1 0.0
17/10:30pm 7.3 5.2 -0.9 56 3.2 CALM 0 4 0 2 1023.9 1023.5 0.0
17/10:00pm 8.2 6.1 -1.1 52 3.6 CALM 0 0 0 0 1024.4 1023.9 0.0
17/09:30pm 8.9 5.4 -1.2 49 3.9 S 7 9 4 5 1024.0 1023.6 0.0
17/09:00pm 8.8 4.5 -1.3 49 3.9 SSE 11 15 6 8 1023.5 1023.1 0.0
17/08:30pm 9.3 5.0 -1.4 47 4.2 SSE 11 15 6 8 1023.0 1022.6 0.0
17/08:00pm 10.4 6.1 -1.6 43 4.7 SSE 11 13 6 7 1022.4 1022.0 0.0
17/07:30pm 11.3 6.6 -1.8 40 5.2 SSE 13 15 7 8 1021.9 1021.5 0.0
17/07:00pm 12.3 7.6 -2.0 37 5.7 SSE 13 17 7 9 1021.4 1021.0 0.0
17/06:30pm 13.1 8.4 -1.6 36 5.9 S 13 17 7 9 1020.9 1020.4 0.0
17/06:00pm 14.8 9.3 -2.1 31 6.9 S 17 22 9 12 1020.3 1019.8 0.0
17/05:30pm 16.6 10.1 -2.5 27 7.8 S 22 35 12 19 1020.0 1019.5 0.0
17/05:00pm 17.8 11.0 -1.9 26 8.3 S 24 33 13 18 1019.9 1019.4 0.0
17/04:30pm 18.3 11.5 -2.0 25 8.6 S 24 37 13 20 1019.8 1019.3 0.0
17/04:00pm 18.9 11.7 -2.1 24 8.9 S 26 37 14 20 1019.8 1019.3 0.0
17/03:30pm 19.2 12.4 -1.8 24 9.0 S 24 39 13 21 1020.0 1019.5 0.0
17/03:00pm 19.5 12.8 -1.0 25 8.9 SSW 24 41 13 22 1020.2 1019.7 0.0
17/02:30pm 19.2 12.6 -0.7 26 8.7 S 24 35 13 19 1020.2 1019.7 0.0
17/02:00pm 18.3 11.4 0.0 29 8.1 S 26 35 14 19 1020.7 1020.2 0.0
17/01:30pm 18.5 11.9 -0.3 28 8.2 S 24 35 13 19 1021.2 1020.7 0.0
17/01:00pm 18.1 11.7 0.7 31 7.8 S 24 37 13 20 1021.6 1021.2 0.0
17/12:30pm 18.0 11.6 1.1 32 7.6 S 24 37 13 20 1022.2 1021.8 0.0
17/12:00pm 16.8 9.4 2.0 37 6.7 S 30 41 16 22 1023.0 1022.6 0.0
17/11:30am 16.6 8.8 1.9 37 6.6 S 32 44 17 24 1023.3 1022.9 0.0
17/11:13am 16.7 9.8 2.3 38 6.6 S 28 46 15 25 1023.6 1023.2 0.0
17/11:00am 15.9 8.6 2.3 40 6.2 S 30 41 16 22 1023.8 1023.4 0.0
17/10:30am 15.7 8.5 2.8 42 5.9 S 30 43 16 23 1024.3 1023.8 0.0
17/10:00am 14.8 7.9 2.7 44 5.5 SSE 28 39 15 21 1024.4 1023.9 0.0
17/09:30am 13.9 7.4 2.5 46 5.1 SSE 26 41 14 22 1024.5 1024.0 0.0
17/09:00am 12.5 5.7 2.9 52 4.3 SSE 28 37 15 20 1024.4 1023.9 0.0
17/08:30am 10.6 5.3 3.2 60 3.2 SSE 20 28 11 15 1024.0 1023.6 0.0
17/08:00am 6.1 2.8 2.2 76 1.6 SSW 9 11 5 6 1023.8 1023.4 0.0
17/07:30am 3.2 0.2 0.8 84 0.9 SW 6 11 3 6 1023.3 1022.9 0.0
17/07:00am 2.4 -0.9 0.0 84 0.9 SW 7 9 4 5 1022.8 1022.4 0.0
17/06:30am 3.0 0.3 0.1 81 1.1 SSW 4 6 2 3 1022.4 1022.0 0.0
17/06:00am 3.2 -0.1 0.4 82 1.1 SSW 7 9 4 5 1022.1 1021.7 0.0
17/05:30am 3.4 1.1 0.1 79 1.2 SW 2 9 1 5 1021.9 1021.5 0.0
17/05:00am 3.5 0.4 -0.1 77 1.4 SSW 6 7 3 4 1021.5 1021.1 0.0
17/04:30am 3.1 -0.6 -0.2 79 1.2 SSW 9 11 5 6 1021.1 1020.6 0.0
17/04:00am 3.2 -0.5 -0.3 78 1.3 SSW 9 11 5 6 1020.8 1020.3 0.0
17/03:30am 3.8 0.1 0.1 77 1.4 SW 9 13 5 7 1020.8 1020.3 0.0
17/03:00am 5.0 1.8 0.8 74 1.7 SW 7 9 4 5 1020.7 1020.2 0.0
17/02:30am 5.0 1.4 0.4 72 1.8 SSW 9 11 5 6 1020.5 1020.0 0.0
17/02:00am 6.1 2.9 0.9 69 2.1 SSW 7 7 4 4 1020.6 1020.1 0.0
17/01:30am 6.8 3.2 0.5 64 2.5 SSE 9 11 5 6 1020.7 1020.2 0.0
17/01:00am 7.0 4.0 0.5 63 2.6 S 6 9 3 5 1021.0 1020.5 0.0
17/12:30am 7.8 4.2 0.8 61 2.8 SSE 9 13 5 7 1021.1 1020.6 0.0
17/12:00am 8.1 4.5 0.6 59 3.0 SSE 9 13 5 7 1021.1 1020.6 0.0
 
Date/Time
CST
Temp
°C
App
Temp
°C
Dew
Point
°C
Rel
Hum
%
Delta-T
°C
Wind Press
QNH
hPa
Press
MSL
hPa
Rain since
9am
mm
Dir  Spd
km/h
Gust
km/h
Spd
kts
Gust
kts
16/11:30pm 8.3 4.4 1.0 60 3.0 S 11 15 6 8 1021.2 1020.7 0.0
16/11:00pm 8.4 4.9 1.3 61 2.9 SSW 9 11 5 6 1021.2 1020.7 0.0
16/10:30pm 8.5 4.6 1.0 59 3.1 SSW 11 15 6 8 1021.3 1020.8 0.0
16/10:00pm 10.9 6.6 1.2 51 4.1 S 13 19 7 10 1021.3 1020.8 0.0
16/09:30pm 11.1 6.5 1.6 52 4.0 S 15 17 8 9 1021.3 1020.8 0.0
16/09:00pm 11.5 6.9 1.5 50 4.3 S 15 19 8 10 1021.3 1020.8 0.0
16/08:30pm 10.9 6.8 2.0 54 3.8 SSW 13 15 7 8 1021.0 1020.5 0.0
16/08:00pm 11.5 7.3 1.7 51 4.2 S 13 15 7 8 1020.6 1020.1 0.0
16/07:30pm 12.6 8.8 1.6 47 4.8 SSW 11 13 6 7 1020.1 1019.6 0.0
16/07:00pm 13.4 9.2 1.7 45 5.1 S 13 17 7 9 1019.6 1019.2 0.0
16/06:30pm 14.4 10.3 2.0 43 5.5 S 13 17 7 9 1019.2 1018.8 0.0
16/06:00pm 16.6 12.1 2.2 38 6.5 S 15 20 8 11 1018.9 1018.5 0.0
16/05:30pm 18.8 13.3 1.8 32 7.8 S 20 30 11 16 1018.6 1018.2 0.0
16/05:00pm 20.1 14.2 1.5 29 8.6 S 22 32 12 17 1018.3 1017.9 0.0
16/04:30pm 20.7 14.9 2.5 30 8.6 S 22 33 12 18 1018.2 1017.8 0.0
16/04:00pm 21.0 15.2 2.3 29 8.8 S 22 35 12 19 1017.9 1017.5 0.0
16/03:30pm 21.3 15.2 2.6 29 8.9 S 24 35 13 19 1017.9 1017.5 0.0
16/03:00pm 21.1 14.6 2.9 30 8.7 S 26 39 14 21 1018.0 1017.6 0.0
16/02:30pm 20.8 14.2 2.1 29 8.8 S 26 37 14 20 1018.2 1017.8 0.0
16/02:00pm 21.5 15.0 2.7 29 9.0 S 26 41 14 22 1018.5 1018.1 0.0
16/01:30pm 21.0 14.4 1.8 28 8.9 S 26 39 14 21 1018.9 1018.5 0.0
16/01:00pm 21.0 13.5 1.3 27 9.1 S 30 44 16 24 1019.3 1018.9 0.0
16/12:30pm 20.5 13.4 1.4 28 8.8 S 28 39 15 21 1019.9 1019.4 0.0
16/12:17pm 21.2 14.3 2.5 29 8.9 S 28 46 15 25 1020.1 1019.6 0.0
16/12:00pm 20.3 13.6 1.7 29 8.6 S 26 41 14 22 1020.4 1019.9 0.0
16/11:30am 20.4 13.8 2.3 30 8.5 SSE 26 39 14 21 1020.9 1020.4 0.0
16/11:00am 19.5 13.3 2.4 32 8.0 SSE 24 39 13 21 1021.2 1020.7 0.0
16/10:30am 19.3 13.5 2.2 32 7.9 SSE 22 33 12 18 1021.5 1021.1 0.0
16/10:00am 19.1 13.8 2.9 34 7.6 SSE 20 32 11 17 1021.4 1021.0 0.0
16/09:30am 18.2 13.4 2.5 35 7.2 SSE 17 26 9 14 1021.4 1021.0 0.0
16/09:00am 16.9 13.0 3.2 40 6.4 SE 13 20 7 11 1021.1 1020.6 0.0
16/08:30am 13.5 10.5 4.1 53 4.3 ESE 9 11 5 6 1020.7 1020.2 0.0
16/08:00am 9.0 7.2 3.4 68 2.4 ESE 2 9 1 5 1020.5 1020.0 0.0
16/07:30am 7.0 5.4 2.7 74 1.8 CALM 0 0 0 0 1020.2 1019.7 0.0
16/07:00am 5.7 4.1 2.2 78 1.4 CALM 0 0 0 0 1019.9 1019.4 0.0
16/06:30am 5.3 3.6 1.6 77 1.5 CALM 0 0 0 0 1019.4 1019.0 0.0
16/06:00am 6.7 3.9 2.2 73 1.9 ESE 6 6 3 3 1019.2 1018.8 0.0
16/05:30am 7.1 4.4 2.6 73 1.9 ESE 6 7 3 4 1019.1 1018.7 0.0
16/05:00am 6.7 4.7 2.4 74 1.8 ESE 2 6 1 3 1019.0 1018.6 0.0
16/04:30am 7.1 4.3 2.2 71 2.0 ESE 6 6 3 3 1018.9 1018.5 0.0
16/04:00am 7.5 4.6 2.4 70 2.1 ESE 7 7 4 4 1018.9 1018.5 0.0
16/03:30am 7.7 4.4 2.4 69 2.2 SE 9 11 5 6 1018.8 1018.4 0.0
16/03:00am 7.7 4.0 2.4 69 2.2 SE 11 13 6 7 1018.9 1018.5 0.0
16/02:30am 8.6 4.5 2.4 65 2.6 SE 13 17 7 9 1018.7 1018.3 0.0
16/02:00am 8.0 4.3 2.3 67 2.4 SE 11 13 6 7 1018.7 1018.3 0.0
16/01:30am 7.8 4.4 2.1 67 2.4 SSE 9 11 5 6 1018.8 1018.4 0.0
16/01:00am 7.9 4.9 1.7 65 2.6 SSE 7 9 4 5 1018.7 1018.3 0.0
16/12:30am 9.0 5.6 2.1 62 2.9 SSE 9 11 5 6 1018.7 1018.3 0.0
16/12:00am 9.8 6.0 1.9 58 3.4 SSE 11 13 6 7 1018.7 1018.3 0.0
 
Date/Time
CST
Temp
°C
App
Temp
°C
Dew
Point
°C
Rel
Hum
%
Delta-T
°C
Wind Press
QNH
hPa
Press
MSL
hPa
Rain since
9am
mm
Dir  Spd
km/h
Gust
km/h
Spd
kts
Gust
kts
15/11:30pm 11.1 7.0 2.2 54 3.8 SSE 13 19 7 10 1018.6 1018.2 0.0
15/11:00pm 11.8 7.3 2.0 51 4.3 SSE 15 19 8 10 1018.5 1018.1 0.0
15/10:30pm 12.1 7.9 1.7 49 4.5 SSE 13 19 7 10 1018.4 1018.0 0.0
15/10:00pm 12.6 8.3 1.3 46 4.9 SSE 13 17 7 9 1018.3 1017.9 0.0
15/09:30pm 14.2 8.8 1.5 42 5.6 SSE 19 26 10 14 1018.1 1017.7 0.0
15/09:00pm 14.7 9.7 1.3 40 5.9 SSE 17 24 9 13 1017.9 1017.5 0.0
15/08:30pm 13.4 9.1 0.8 42 5.4 S 13 17 7 9 1017.5 1017.0 0.0
15/08:00pm 13.4 9.0 0.1 40 5.6 S 13 19 7 10 1017.2 1016.7 0.0
15/07:30pm 12.5 8.4 -0.4 41 5.3 S 11 13 6 7 1016.7 1016.2 0.0
15/07:00pm 13.8 9.6 -0.6 37 6.0 S 11 13 6 7 1016.2 1015.7 0.0
15/06:30pm 15.1 10.9 -0.6 34 6.6 S 11 11 6 6 1015.6 1015.1 0.0
15/06:00pm 17.0 12.4 -0.7 30 7.6 S 13 17 7 9 1015.2 1014.7 0.0
15/05:30pm 19.3 13.9 -1.2 25 8.9 S 17 24 9 13 1014.9 1014.5 0.0

Other formats

Comma delimited format used in spreadsheet applications
http://www.bom.gov.au/fwo/IDD60801/IDD60801.94255.axf

JavaScript Object Notation format (JSON) in row-major order
http://www.bom.gov.au/fwo/IDD60801/IDD60801.94255.json

Data quality

Most of these data are generated automatically and are frequently updated. Quality checks on data are not normally performed. It is possible for incorrect values to appear. Refer to information at About Latest Weather Observations and please check the disclaimer before using these data.